CAM weather

Camiri Airport
Camiri, Santa Cruz Department, Bolivia

Public forecast

Using degrees Celsius for public forecast. Weather courtesy of forecast.io.

METAR (pilot weather report)

Report is more than 6 hours old.

Retrieved 2019/03/21 23:00 UTC (7 hours ago):

SLCA 212300Z 18005KT 9999 OVC023 18/17 Q1019

TAF (pilot weather forecast)

Forecast is more than 6 hours old.

Closest forecast is Capitan Oriel Lea Plaza Airport, 114.0 nm (211.1 km) SW. Retrieved 2019/03/21 18:54 UTC (11 hours ago):

TAF SLTJ 211650Z 2118/2218 15012KT 9999 SCT027 BKN070 TX21/2119Z TN12/2210Z TEMPO 2120/2122 FEW036CB